createdAt,value
2018-07-21T00:00:32.018Z,18.32
2018-07-21T00:01:31.941Z,18.33
2018-07-21T00:02:31.865Z,18.23
2018-07-21T00:03:31.777Z,18.25
2018-07-21T00:04:31.716Z,18.27
2018-07-21T00:05:31.629Z,18.25
2018-07-21T00:06:31.546Z,18.17
2018-07-21T00:07:31.494Z,18.07
2018-07-21T00:08:31.393Z,18.07
2018-07-21T00:09:31.316Z,18.02
2018-07-21T00:10:31.228Z,17.95
2018-07-21T00:11:31.152Z,17.96
2018-07-21T00:12:31.077Z,18.02
2018-07-21T00:13:30.993Z,17.96
2018-07-21T00:14:30.918Z,17.93
2018-07-21T00:15:30.848Z,17.96
2018-07-21T00:16:30.758Z,17.99
2018-07-21T00:17:30.678Z,17.99
2018-07-21T00:18:30.617Z,17.92
2018-07-21T00:19:30.523Z,17.96
2018-07-21T00:20:30.449Z,17.95
2018-07-21T00:21:30.369Z,17.96
2018-07-21T00:22:30.293Z,17.95
2018-07-21T00:23:30.207Z,17.95
2018-07-21T00:24:30.130Z,17.92
2018-07-21T00:25:30.055Z,17.93
2018-07-21T00:26:29.967Z,17.92
2018-07-21T00:27:29.892Z,17.95
2018-07-21T00:28:29.843Z,17.96
2018-07-21T00:29:29.730Z,17.92
2018-07-21T00:30:29.654Z,17.93
2018-07-21T00:31:29.580Z,17.89
2018-07-21T00:32:29.493Z,17.86
2018-07-21T00:33:29.421Z,17.79
2018-07-21T00:34:29.349Z,17.77
2018-07-21T00:35:29.257Z,17.86
2018-07-21T00:36:29.182Z,17.79
2018-07-21T00:37:29.104Z,17.74
2018-07-21T00:38:29.019Z,17.81
2018-07-21T00:39:28.943Z,17.72
2018-07-21T00:40:28.869Z,17.68
2018-07-21T00:41:28.784Z,17.71
2018-07-21T00:42:28.708Z,17.63
2018-07-21T00:43:28.634Z,17.63
2018-07-21T00:44:28.546Z,17.58
2018-07-21T00:45:28.471Z,17.66
2018-07-21T00:46:28.439Z,17.71
2018-07-21T00:47:28.309Z,17.55
2018-07-21T00:48:28.233Z,17.58
2018-07-21T00:49:28.156Z,17.56
2018-07-21T00:50:28.082Z,17.55
2018-07-21T00:51:27.994Z,17.63
2018-07-21T00:52:27.920Z,17.58
2018-07-21T00:53:27.846Z,17.54
2018-07-21T00:54:27.759Z,17.55
2018-07-21T00:55:27.683Z,17.43
2018-07-21T00:56:27.614Z,17.38
2018-07-21T00:57:27.532Z,17.46
2018-07-21T00:58:27.445Z,17.36
2018-07-21T00:59:27.370Z,17.28
2018-07-21T01:00:27.284Z,17.28
2018-07-21T01:01:27.208Z,17.28
2018-07-21T01:02:27.132Z,17.23
2018-07-21T01:03:27.045Z,17.25
2018-07-21T01:04:26.971Z,17.16
2018-07-21T01:05:26.887Z,17.22
2018-07-21T01:06:26.810Z,17.23
2018-07-21T01:07:26.735Z,17.16
2018-07-21T01:08:26.649Z,17.19
2018-07-21T01:09:26.572Z,17.18
2018-07-21T01:10:26.496Z,17.19
2018-07-21T01:11:26.411Z,17.15
2018-07-21T01:12:26.334Z,17.14
2018-07-21T01:13:26.274Z,17.11
2018-07-21T01:14:26.174Z,17.11
2018-07-21T01:15:26.099Z,17.01
2018-07-21T01:16:26.025Z,16.97
2018-07-21T01:17:25.934Z,16.98
2018-07-21T01:18:25.873Z,16.94
2018-07-21T01:19:25.785Z,16.98
2018-07-21T01:20:25.697Z,16.98
2018-07-21T01:21:25.625Z,16.98
2018-07-21T01:22:25.550Z,16.89
2018-07-21T01:23:25.475Z,16.89
2018-07-21T01:24:25.393Z,16.86
2018-07-21T01:25:25.312Z,16.91
2018-07-21T01:26:25.226Z,16.93
2018-07-21T01:27:25.149Z,16.81
2018-07-21T01:28:25.075Z,16.86
2018-07-21T01:29:24.988Z,16.78
2018-07-21T01:30:24.917Z,16.75
2018-07-21T01:31:24.827Z,16.76
2018-07-21T01:32:24.751Z,16.75
2018-07-21T01:33:24.677Z,16.78
2018-07-21T01:34:24.589Z,16.81
2018-07-21T01:35:24.515Z,16.83
2018-07-21T01:36:24.439Z,16.75
2018-07-21T01:37:24.350Z,16.81
2018-07-21T01:38:24.276Z,16.81
2018-07-21T01:39:24.200Z,16.81
2018-07-21T01:40:24.112Z,16.73
2018-07-21T01:41:24.039Z,16.82
2018-07-21T01:42:23.970Z,16.79
2018-07-21T01:43:23.878Z,16.81
2018-07-21T01:44:23.802Z,16.89
2018-07-21T01:45:23.712Z,16.73
2018-07-21T01:46:23.638Z,16.76
2018-07-21T01:47:23.562Z,16.67
2018-07-21T01:48:23.476Z,16.73
2018-07-21T01:49:23.403Z,16.78
2018-07-21T01:50:23.327Z,16.73
2018-07-21T01:51:23.241Z,16.73
2018-07-21T01:52:23.163Z,16.68
2018-07-21T01:53:23.079Z,16.70
2018-07-21T01:54:23.004Z,16.73
2018-07-21T01:55:22.929Z,16.73
2018-07-21T01:56:22.841Z,16.67
2018-07-21T01:57:22.764Z,16.66
2018-07-21T01:58:22.689Z,16.67
2018-07-21T01:59:22.603Z,16.78
2018-07-21T02:00:22.528Z,16.71
2018-07-21T02:01:22.446Z,16.73
2018-07-21T02:02:22.366Z,16.70
2018-07-21T02:03:22.292Z,16.68
2018-07-21T02:04:22.204Z,16.71
2018-07-21T02:05:22.132Z,16.75
2018-07-21T02:06:22.055Z,16.68
2018-07-21T02:07:21.966Z,16.68
2018-07-21T02:08:21.892Z,16.66
2018-07-21T02:09:21.815Z,16.60
2018-07-21T02:10:21.729Z,16.66
2018-07-21T02:11:21.653Z,16.70
2018-07-21T02:12:21.566Z,16.61
2018-07-21T02:13:21.493Z,16.60
2018-07-21T02:14:21.417Z,16.57
2018-07-21T02:15:21.332Z,16.58
2018-07-21T02:16:21.269Z,16.63
2018-07-21T02:17:21.179Z,16.58
2018-07-21T02:18:21.092Z,16.58
2018-07-21T02:19:21.016Z,16.48
2018-07-21T02:20:20.930Z,16.52
2018-07-21T02:21:20.857Z,16.49
2018-07-21T02:22:20.782Z,16.52
2018-07-21T02:23:20.694Z,16.42
2018-07-21T02:24:20.619Z,16.43
2018-07-21T02:25:20.542Z,16.31
2018-07-21T02:26:20.454Z,16.45
2018-07-21T02:27:20.382Z,16.42
2018-07-21T02:28:20.292Z,16.39
2018-07-21T02:29:20.219Z,16.38
2018-07-21T02:30:20.146Z,16.34
2018-07-21T02:31:20.058Z,16.20
2018-07-21T02:32:19.984Z,16.27
2018-07-21T02:33:19.896Z,16.23
2018-07-21T02:34:19.834Z,16.28
2018-07-21T02:35:19.744Z,16.33
2018-07-21T02:36:19.661Z,16.23
2018-07-21T02:37:19.581Z,16.31
2018-07-21T02:38:19.505Z,16.23
2018-07-21T02:39:19.448Z,16.24
2018-07-21T02:40:19.344Z,16.35
2018-07-21T02:41:19.258Z,16.25
2018-07-21T02:42:19.189Z,16.25
2018-07-21T02:43:19.098Z,16.17
2018-07-21T02:44:19.021Z,16.20
2018-07-21T02:45:18.944Z,16.39
2018-07-21T02:46:18.859Z,16.31
2018-07-21T02:47:18.782Z,16.30
2018-07-21T02:48:18.707Z,16.25
2018-07-21T02:49:18.622Z,16.24
2018-07-21T02:50:18.559Z,16.28
2018-07-21T02:51:18.459Z,16.25
2018-07-21T02:52:18.384Z,16.24
2018-07-21T02:53:18.309Z,16.20
2018-07-21T02:54:18.222Z,16.17
2018-07-21T02:55:18.148Z,16.31
2018-07-21T02:56:18.060Z,16.25
2018-07-21T02:57:17.983Z,16.23
2018-07-21T02:58:17.909Z,16.17
2018-07-21T02:59:17.821Z,16.17
2018-07-21T03:00:17.749Z,16.23
2018-07-21T03:01:17.664Z,16.27
2018-07-21T03:02:17.586Z,16.25
2018-07-21T03:03:17.511Z,16.20
2018-07-21T03:04:17.425Z,16.14
2018-07-21T03:05:17.347Z,16.15
2018-07-21T03:06:17.274Z,16.15
2018-07-21T03:07:17.187Z,16.21
2018-07-21T03:08:17.110Z,16.12
2018-07-21T03:09:17.021Z,16.09
2018-07-21T03:10:16.947Z,16.12
2018-07-21T03:11:16.860Z,16.11
2018-07-21T03:12:16.785Z,16.02
2018-07-21T03:13:16.711Z,16.08
2018-07-21T03:14:16.624Z,16.05
2018-07-21T03:15:16.550Z,16.17
2018-07-21T03:16:16.474Z,16.20
2018-07-21T03:17:16.386Z,16.11
2018-07-21T03:18:16.311Z,16.11
2018-07-21T03:19:16.222Z,16.07
2018-07-21T03:20:16.171Z,16.08
2018-07-21T03:21:16.075Z,16.17
2018-07-21T03:22:15.995Z,16.00
2018-07-21T03:23:15.931Z,16.04
2018-07-21T03:24:15.825Z,16.02
2018-07-21T03:25:15.762Z,16.08
2018-07-21T03:26:15.675Z,16.00
2018-07-21T03:27:15.588Z,16.02
2018-07-21T03:28:15.513Z,16.05
2018-07-21T03:29:15.423Z,16.04
2018-07-21T03:30:15.362Z,16.04
2018-07-21T03:31:15.262Z,16.02
2018-07-21T03:32:15.187Z,16.04
2018-07-21T03:33:15.114Z,16.02
2018-07-21T03:34:15.027Z,16.01
2018-07-21T03:35:14.963Z,16.02
2018-07-21T03:36:14.864Z,16.05
2018-07-21T03:37:14.793Z,16.05
2018-07-21T03:38:14.712Z,16.00
2018-07-21T03:39:14.625Z,15.94
2018-07-21T03:40:14.562Z,16.00
2018-07-21T03:41:14.462Z,15.92
2018-07-21T03:42:14.388Z,15.94
2018-07-21T03:43:14.312Z,15.93
2018-07-21T03:44:14.224Z,15.97
2018-07-21T03:45:14.164Z,16.01
2018-07-21T03:46:14.077Z,16.01
2018-07-21T03:47:13.990Z,15.97
2018-07-21T03:48:13.915Z,16.01
2018-07-21T03:49:13.828Z,16.02
2018-07-21T03:50:13.750Z,16.04
2018-07-21T03:51:13.663Z,16.04
2018-07-21T03:52:13.592Z,16.00
2018-07-21T03:53:13.516Z,16.02
2018-07-21T03:54:13.428Z,16.07
2018-07-21T03:55:13.401Z,15.97
2018-07-21T03:56:13.266Z,16.05
2018-07-21T03:57:13.191Z,16.05
2018-07-21T03:58:13.118Z,16.02
2018-07-21T03:59:13.028Z,16.04
2018-07-21T04:00:12.953Z,16.12
2018-07-21T04:01:12.865Z,16.00
2018-07-21T04:02:12.790Z,16.04
2018-07-21T04:03:12.703Z,16.17
2018-07-21T04:04:12.627Z,16.12
2018-07-21T04:05:12.554Z,16.07
2018-07-21T04:06:12.467Z,16.05
2018-07-21T04:07:12.393Z,16.12
2018-07-21T04:08:12.306Z,16.05
2018-07-21T04:09:12.227Z,16.09
2018-07-21T04:10:12.153Z,16.05
2018-07-21T04:11:12.066Z,16.17
2018-07-21T04:12:11.992Z,16.09
2018-07-21T04:13:11.905Z,16.15
2018-07-21T04:14:11.828Z,16.14
2018-07-21T04:15:11.753Z,16.23
2018-07-21T04:16:11.667Z,16.23
2018-07-21T04:17:11.595Z,16.14
2018-07-21T04:18:11.508Z,16.21
2018-07-21T04:19:11.432Z,16.24
2018-07-21T04:20:11.360Z,16.23
2018-07-21T04:21:11.268Z,16.27
2018-07-21T04:22:11.195Z,16.25
2018-07-21T04:23:11.106Z,16.23
2018-07-21T04:24:11.069Z,16.34
2018-07-21T04:25:10.958Z,16.38
2018-07-21T04:26:10.871Z,16.33
2018-07-21T04:27:10.795Z,16.43
2018-07-21T04:28:10.724Z,16.46
2018-07-21T04:29:10.631Z,16.43
2018-07-21T04:30:10.555Z,16.49
2018-07-21T04:31:10.476Z,16.46
2018-07-21T04:32:10.393Z,16.52
2018-07-21T04:33:10.320Z,16.52
2018-07-21T04:34:10.245Z,16.63
2018-07-21T04:35:10.159Z,16.63
2018-07-21T04:36:10.073Z,16.64
2018-07-21T04:37:09.995Z,16.70
2018-07-21T04:38:09.921Z,16.78
2018-07-21T04:39:09.843Z,16.78
2018-07-21T04:40:09.757Z,16.79
2018-07-21T04:41:09.684Z,16.98
2018-07-21T04:42:09.596Z,17.14
2018-07-21T04:43:09.527Z,17.21
2018-07-21T04:44:09.447Z,17.40
2018-07-21T04:45:09.359Z,17.62
2018-07-21T04:46:09.283Z,17.86
2018-07-21T04:47:09.197Z,17.97
2018-07-21T04:48:09.122Z,18.27
2018-07-21T04:49:09.045Z,18.47
2018-07-21T04:50:08.956Z,18.63
2018-07-21T04:51:08.882Z,18.87
2018-07-21T04:52:08.809Z,18.95
2018-07-21T04:53:08.725Z,19.10
2018-07-21T04:54:08.649Z,19.13
2018-07-21T04:55:08.560Z,19.18
2018-07-21T04:56:08.485Z,19.33
2018-07-21T04:57:08.408Z,19.39
2018-07-21T04:58:08.349Z,19.58
2018-07-21T04:59:08.245Z,19.77
2018-07-21T05:00:08.171Z,19.95
2018-07-21T05:01:08.138Z,20.02
2018-07-21T05:02:08.008Z,19.99
2018-07-21T05:03:07.933Z,19.91
2018-07-21T05:04:07.858Z,19.88
2018-07-21T05:05:07.773Z,19.78
2018-07-21T05:06:07.699Z,19.80
2018-07-21T05:07:07.624Z,19.80
2018-07-21T05:08:07.537Z,19.78
2018-07-21T05:09:07.459Z,19.73
2018-07-21T05:10:07.384Z,19.61
2018-07-21T05:11:07.358Z,19.56
2018-07-21T05:12:07.222Z,19.54
2018-07-21T05:13:07.150Z,19.59
2018-07-21T05:14:07.074Z,19.54
2018-07-21T05:15:06.988Z,19.54
2018-07-21T05:16:06.911Z,19.40
2018-07-21T05:17:06.836Z,19.48
2018-07-21T05:18:06.764Z,19.55
2018-07-21T05:19:06.679Z,19.61
2018-07-21T05:20:06.615Z,19.50
2018-07-21T05:21:06.523Z,19.63
2018-07-21T05:22:06.448Z,19.61
2018-07-21T05:23:06.361Z,19.59
2018-07-21T05:24:06.286Z,19.61
2018-07-21T05:25:06.212Z,19.73
2018-07-21T05:26:06.137Z,19.61
2018-07-21T05:27:06.062Z,19.61
2018-07-21T05:28:05.975Z,19.61
2018-07-21T05:29:05.903Z,19.65
2018-07-21T05:30:05.826Z,19.71
2018-07-21T05:31:05.737Z,19.74
2018-07-21T05:32:05.663Z,19.77
2018-07-21T05:33:05.588Z,19.81
2018-07-21T05:34:05.512Z,19.83
2018-07-21T05:35:05.426Z,19.92
2018-07-21T05:36:05.350Z,19.88
2018-07-21T05:37:05.277Z,19.96
2018-07-21T05:38:05.202Z,19.96
2018-07-21T05:39:05.164Z,20.03
2018-07-21T05:40:05.040Z,20.03
2018-07-21T05:41:04.962Z,20.06
2018-07-21T05:42:04.900Z,20.06
2018-07-21T05:43:04.801Z,20.20
2018-07-21T05:44:04.725Z,20.06
2018-07-21T05:45:04.687Z,20.14
2018-07-21T05:46:04.580Z,20.20
2018-07-21T05:47:04.503Z,20.28
2018-07-21T05:48:04.415Z,20.31
2018-07-21T05:49:04.341Z,20.26
2018-07-21T05:50:04.266Z,20.41
2018-07-21T05:51:04.191Z,20.38
2018-07-21T05:52:04.104Z,20.51
2018-07-21T05:53:04.071Z,20.42
2018-07-21T05:54:03.953Z,20.38
2018-07-21T05:55:03.878Z,20.52
2018-07-21T05:56:03.790Z,20.52
2018-07-21T05:57:03.717Z,20.62
2018-07-21T05:58:03.654Z,20.72
2018-07-21T05:59:03.568Z,20.70
2018-07-21T06:00:03.493Z,20.69
2018-07-21T06:01:03.405Z,20.82
2018-07-21T06:02:03.329Z,20.82
2018-07-21T06:03:03.324Z,20.89
2018-07-21T06:04:03.179Z,20.89
2018-07-21T06:05:03.104Z,20.97
2018-07-21T06:06:03.016Z,20.97
2018-07-21T06:07:02.940Z,20.98
2018-07-21T06:08:02.873Z,20.92
2018-07-21T06:09:02.793Z,20.98
2018-07-21T06:10:02.721Z,21.07
2018-07-21T06:11:02.667Z,21.12
2018-07-21T06:12:02.557Z,21.16
2018-07-21T06:13:02.479Z,21.25
2018-07-21T06:14:02.407Z,21.24
2018-07-21T06:15:02.330Z,21.28
2018-07-21T06:16:02.242Z,21.35
2018-07-21T06:17:02.213Z,21.34
2018-07-21T06:18:02.094Z,21.35
2018-07-21T06:19:02.020Z,21.49
2018-07-21T06:20:01.944Z,21.52
2018-07-21T06:21:01.869Z,21.52
2018-07-21T06:22:01.783Z,21.53
2018-07-21T06:23:01.710Z,21.62
2018-07-21T06:24:01.633Z,21.62
2018-07-21T06:25:01.558Z,21.68
2018-07-21T06:26:01.481Z,21.71
2018-07-21T06:27:01.405Z,21.69
2018-07-21T06:28:01.325Z,21.72
2018-07-21T06:29:01.245Z,21.74
2018-07-21T06:30:01.171Z,21.74
2018-07-21T06:31:01.096Z,21.86
2018-07-21T06:32:01.023Z,21.82
2018-07-21T06:33:00.945Z,21.72
2018-07-21T06:34:00.857Z,21.80
2018-07-21T06:35:00.781Z,21.77
2018-07-21T06:36:00.707Z,21.86
2018-07-21T06:37:00.633Z,21.86
2018-07-21T06:38:00.559Z,21.96
2018-07-21T06:39:00.484Z,22.00
2018-07-21T06:40:00.414Z,22.05
2018-07-21T06:41:00.320Z,21.98
2018-07-21T06:42:00.257Z,22.02
2018-07-21T06:43:00.169Z,22.20
2018-07-21T06:44:00.157Z,22.12
2018-07-21T06:45:00.027Z,22.17
2018-07-21T06:45:59.948Z,22.10
2018-07-21T06:46:59.872Z,22.17
2018-07-21T06:47:59.785Z,22.12
2018-07-21T06:48:59.710Z,22.10
2018-07-21T06:49:59.633Z,22.21
2018-07-21T06:50:59.559Z,22.18
2018-07-21T06:51:59.483Z,22.27
2018-07-21T06:52:59.409Z,22.33
2018-07-21T06:53:59.333Z,22.35
2018-07-21T06:54:59.247Z,22.36
2018-07-21T06:55:59.184Z,22.47
2018-07-21T06:56:59.097Z,22.61
2018-07-21T06:57:59.036Z,22.68
2018-07-21T06:58:58.991Z,22.67
2018-07-21T06:59:58.873Z,22.73
2018-07-21T07:00:58.796Z,22.68
2018-07-21T07:01:58.721Z,22.83
2018-07-21T07:02:58.646Z,22.72
2018-07-21T07:03:58.571Z,22.79
2018-07-21T07:04:58.499Z,22.91
2018-07-21T07:05:58.412Z,22.86
2018-07-21T07:06:58.337Z,22.91
2018-07-21T07:07:58.262Z,22.94
2018-07-21T07:08:58.188Z,23.05
2018-07-21T07:09:58.113Z,23.23
2018-07-21T07:10:58.037Z,23.13
2018-07-21T07:11:57.963Z,23.19
2018-07-21T07:12:57.886Z,23.27
2018-07-21T07:13:57.810Z,23.15
2018-07-21T07:14:57.735Z,23.13
2018-07-21T07:15:57.663Z,23.23
2018-07-21T07:16:57.589Z,23.33
2018-07-21T07:17:57.514Z,23.35
2018-07-21T07:18:57.425Z,23.31
2018-07-21T07:19:57.350Z,23.40
2018-07-21T07:20:57.273Z,23.48
2018-07-21T07:21:57.198Z,23.58
2018-07-21T07:22:57.123Z,23.61
2018-07-21T07:23:57.048Z,23.70
2018-07-21T07:24:56.976Z,24.09
2018-07-21T07:25:56.898Z,24.20
2018-07-21T07:26:56.824Z,24.24
2018-07-21T07:27:56.750Z,24.16
2018-07-21T07:28:56.676Z,24.40
2018-07-21T07:29:56.602Z,24.31
2018-07-21T07:30:56.529Z,24.40
2018-07-21T07:31:56.451Z,24.37
2018-07-21T07:32:56.374Z,24.34
2018-07-21T07:33:56.300Z,24.40
2018-07-21T07:34:56.227Z,24.52
2018-07-21T07:35:56.150Z,24.47
2018-07-21T07:36:56.077Z,24.90
2018-07-21T07:37:56.003Z,25.13
2018-07-21T07:38:55.929Z,25.33
2018-07-21T07:39:55.866Z,25.61
2018-07-21T07:40:55.791Z,25.79
2018-07-21T07:41:55.716Z,25.91
2018-07-21T07:42:55.642Z,26.09
2018-07-21T07:43:55.571Z,26.10
2018-07-21T07:44:55.489Z,25.88
2018-07-21T07:45:55.439Z,26.17
2018-07-21T07:46:55.352Z,26.43
2018-07-21T07:47:55.276Z,26.73
2018-07-21T07:48:55.203Z,27.06
2018-07-21T07:49:55.142Z,27.19
2018-07-21T07:50:55.072Z,27.46
2018-07-21T07:51:54.995Z,27.59
2018-07-21T07:52:54.940Z,27.63
2018-07-21T07:53:54.852Z,27.54
2018-07-21T07:54:54.778Z,27.88
2018-07-21T07:55:54.717Z,27.75
2018-07-21T07:56:54.640Z,27.85
2018-07-21T07:57:54.566Z,27.63
2018-07-21T07:58:54.502Z,27.79
2018-07-21T07:59:54.428Z,28.11
2018-07-21T08:00:54.368Z,28.51
2018-07-21T08:01:54.293Z,28.80
2018-07-21T08:02:54.230Z,29.06
2018-07-21T08:03:54.168Z,29.51
2018-07-21T08:04:54.079Z,28.64
2018-07-21T08:05:54.016Z,28.83
2018-07-21T08:06:53.941Z,28.55
2018-07-21T08:07:53.879Z,28.70
2018-07-21T08:08:53.808Z,28.98
2018-07-21T08:09:53.744Z,29.23
2018-07-21T08:10:53.681Z,28.98
2018-07-21T08:11:53.634Z,29.41
2018-07-21T08:12:53.544Z,29.16
2018-07-21T08:13:53.470Z,29.21
2018-07-21T08:14:53.407Z,28.89
2018-07-21T08:15:53.331Z,29.11
2018-07-21T08:16:53.267Z,28.70
2018-07-21T08:17:53.207Z,28.90
2018-07-21T08:18:53.130Z,29.09
2018-07-21T08:19:53.069Z,29.15
2018-07-21T08:20:52.997Z,28.64
2018-07-21T08:21:52.932Z,28.43
2018-07-21T08:22:52.871Z,28.62
2018-07-21T08:23:52.795Z,29.05
2018-07-21T08:24:52.730Z,28.77
2018-07-21T08:25:52.669Z,29.14
2018-07-21T08:26:52.594Z,29.23
2018-07-21T08:27:52.530Z,29.26
2018-07-21T08:28:52.468Z,28.83
2018-07-21T08:29:52.394Z,28.86
2018-07-21T08:30:52.332Z,29.21
2018-07-21T08:31:52.256Z,29.65
2018-07-21T08:32:52.196Z,29.57
2018-07-21T08:33:52.133Z,29.11
2018-07-21T08:34:52.059Z,29.09
2018-07-21T08:35:51.997Z,29.16
2018-07-21T08:36:51.932Z,29.12
2018-07-21T08:37:51.860Z,29.57
2018-07-21T08:38:51.797Z,29.90
2018-07-21T08:39:51.731Z,30.04
2018-07-21T08:40:51.659Z,29.83
2018-07-21T08:41:51.599Z,30.07
2018-07-21T08:42:51.537Z,30.02
2018-07-21T08:43:51.460Z,30.02
2018-07-21T08:44:51.396Z,29.95
2018-07-21T08:45:51.332Z,29.94
2018-07-21T08:46:51.270Z,30.13
2018-07-21T08:47:51.196Z,30.22
2018-07-21T08:48:51.135Z,29.76
2018-07-21T08:49:51.126Z,30.17
2018-07-21T08:50:51.001Z,30.29
2018-07-21T08:51:50.935Z,30.34
2018-07-21T08:52:50.871Z,29.94
2018-07-21T08:53:50.809Z,30.38
2018-07-21T08:54:50.734Z,30.55
2018-07-21T08:55:50.703Z,30.97
2018-07-21T08:56:50.610Z,30.84
2018-07-21T08:57:50.549Z,31.48
2018-07-21T08:58:50.474Z,31.50
2018-07-21T08:59:50.429Z,31.78
2018-07-21T09:00:50.352Z,31.43
2018-07-21T09:01:50.288Z,30.26
2018-07-21T09:02:50.212Z,30.97
2018-07-21T09:03:50.151Z,30.86
2018-07-21T09:04:50.086Z,30.46
2018-07-21T09:05:50.072Z,30.51
2018-07-21T09:06:49.960Z,30.73
2018-07-21T09:07:49.886Z,30.73
2018-07-21T09:08:49.825Z,30.58
2018-07-21T09:09:49.762Z,30.31
2018-07-21T09:10:49.703Z,30.75
2018-07-21T09:11:49.638Z,31.01
2018-07-21T09:12:49.574Z,31.04
2018-07-21T09:13:49.499Z,30.73
2018-07-21T09:14:49.440Z,31.01
2018-07-21T09:15:49.375Z,30.42
2018-07-21T09:16:49.324Z,30.60
2018-07-21T09:17:49.253Z,31.20
2018-07-21T09:18:49.175Z,31.28
2018-07-21T09:19:49.128Z,31.76
2018-07-21T09:20:49.056Z,32.18
2018-07-21T09:21:48.989Z,32.26
2018-07-21T09:22:48.926Z,31.29
2018-07-21T09:23:48.864Z,31.51
2018-07-21T09:24:48.788Z,31.96
2018-07-21T09:25:48.727Z,32.00
2018-07-21T09:26:48.663Z,32.44
2018-07-21T09:27:48.601Z,32.79
2018-07-21T09:28:48.547Z,33.14
2018-07-21T09:29:48.478Z,33.28
2018-07-21T09:30:48.427Z,32.72
2018-07-21T09:31:48.340Z,32.33
2018-07-21T09:32:48.278Z,31.93
2018-07-21T09:33:48.228Z,32.30
2018-07-21T09:34:48.155Z,31.28
2018-07-21T09:35:48.090Z,31.65
2018-07-21T09:36:48.026Z,32.06
2018-07-21T09:37:47.963Z,32.33
2018-07-21T09:38:47.901Z,32.35
2018-07-21T09:39:47.838Z,32.50
2018-07-21T09:40:47.766Z,32.66
2018-07-21T09:41:47.705Z,32.25
2018-07-21T09:42:47.644Z,31.96
2018-07-21T09:43:47.579Z,32.30
2018-07-21T09:44:47.527Z,32.21
2018-07-21T09:45:47.458Z,31.13
2018-07-21T09:46:47.389Z,31.20
2018-07-21T09:47:47.327Z,31.14
2018-07-21T09:48:47.267Z,31.50
2018-07-21T09:49:47.191Z,31.70
2018-07-21T09:50:47.129Z,31.58
2018-07-21T09:51:47.068Z,31.76
2018-07-21T09:52:47.003Z,30.97
2018-07-21T09:53:46.943Z,31.13
2018-07-21T09:54:46.865Z,31.14
2018-07-21T09:55:46.887Z,31.12
2018-07-21T09:56:46.742Z,30.97
2018-07-21T09:57:46.680Z,30.80
2018-07-21T09:58:46.607Z,30.75
2018-07-21T09:59:46.542Z,29.76
2018-07-21T10:00:46.481Z,30.13
2018-07-21T10:01:46.416Z,30.55
2018-07-21T10:02:46.341Z,30.94
2018-07-21T10:03:46.279Z,31.13
2018-07-21T10:04:46.216Z,31.10
2018-07-21T10:05:46.141Z,31.19
2018-07-21T10:06:46.079Z,30.73
2018-07-21T10:07:46.016Z,30.57
2018-07-21T10:08:45.943Z,30.29
2018-07-21T10:09:45.881Z,30.54
2018-07-21T10:10:45.819Z,30.75
2018-07-21T10:11:45.746Z,30.76
2018-07-21T10:12:45.684Z,30.83
2018-07-21T10:13:45.617Z,31.09
2018-07-21T10:14:45.542Z,31.02
2018-07-21T10:15:45.481Z,30.46
2018-07-21T10:16:45.419Z,30.58
2018-07-21T10:17:45.348Z,30.42
2018-07-21T10:18:45.287Z,30.51
2018-07-21T10:19:45.220Z,30.64
2018-07-21T10:20:45.144Z,30.51
2018-07-21T10:21:45.135Z,30.64
2018-07-21T10:22:45.011Z,30.76
2018-07-21T10:23:44.945Z,30.62
2018-07-21T10:24:44.884Z,30.19
2018-07-21T10:25:44.812Z,29.83
2018-07-21T10:26:44.743Z,29.94
2018-07-21T10:27:44.682Z,30.04
2018-07-21T10:28:44.610Z,29.98
2018-07-21T10:29:44.546Z,29.39
2018-07-21T10:30:44.485Z,29.11
2018-07-21T10:31:44.409Z,28.83
2018-07-21T10:32:44.345Z,28.76
2018-07-21T10:33:44.269Z,28.71
2018-07-21T10:34:44.207Z,28.93
2018-07-21T10:35:44.133Z,29.18
2018-07-21T10:36:44.073Z,29.12
2018-07-21T10:37:44.011Z,29.16
2018-07-21T10:38:43.933Z,29.43
2018-07-21T10:39:43.870Z,29.67
2018-07-21T10:40:43.802Z,29.67
2018-07-21T10:41:43.735Z,29.73
2018-07-21T10:42:43.660Z,29.57
2018-07-21T10:43:43.597Z,29.61
2018-07-21T10:44:43.534Z,29.48
2018-07-21T10:45:43.458Z,29.64
2018-07-21T10:46:43.395Z,29.82
2018-07-21T10:47:43.320Z,29.87
2018-07-21T10:48:43.261Z,29.87
2018-07-21T10:49:43.187Z,30.04
2018-07-21T10:50:43.182Z,30.08
2018-07-21T10:51:43.060Z,29.78
2018-07-21T10:52:42.987Z,29.92
2018-07-21T10:53:42.921Z,29.70
2018-07-21T10:54:42.848Z,29.74
2018-07-21T10:55:42.786Z,30.08
2018-07-21T10:56:42.724Z,30.67
2018-07-21T10:57:42.653Z,30.34
2018-07-21T10:58:42.588Z,29.70
2018-07-21T10:59:42.523Z,29.94
2018-07-21T11:00:42.448Z,30.53
2018-07-21T11:01:42.385Z,30.70
2018-07-21T11:02:42.322Z,31.02
2018-07-21T11:03:42.248Z,31.25
2018-07-21T11:04:42.189Z,31.25
2018-07-21T11:05:42.125Z,31.16
2018-07-21T11:06:42.051Z,30.94
2018-07-21T11:07:41.988Z,30.24
2018-07-21T11:08:41.925Z,30.02
2018-07-21T11:09:41.863Z,30.22
2018-07-21T11:10:41.789Z,30.49
2018-07-21T11:11:41.727Z,30.32
2018-07-21T11:12:41.661Z,30.49
2018-07-21T11:13:41.587Z,30.20
2018-07-21T11:14:41.523Z,30.13
2018-07-21T11:15:41.462Z,29.70
2018-07-21T11:16:41.401Z,29.37
2018-07-21T11:17:41.328Z,28.85
2018-07-21T11:18:41.265Z,29.05
2018-07-21T11:19:41.204Z,28.83
2018-07-21T11:20:41.124Z,28.98
2018-07-21T11:21:41.064Z,29.00
2018-07-21T11:22:40.999Z,29.14
2018-07-21T11:23:40.928Z,29.15
2018-07-21T11:24:40.863Z,29.14
2018-07-21T11:25:40.800Z,29.00
2018-07-21T11:26:40.725Z,28.51
2018-07-21T11:27:40.664Z,28.59
2018-07-21T11:28:40.615Z,28.70
2018-07-21T11:29:40.527Z,29.00
2018-07-21T11:30:40.466Z,29.04
2018-07-21T11:31:40.416Z,29.24
2018-07-21T11:32:40.325Z,29.31
2018-07-21T11:33:40.266Z,29.41
2018-07-21T11:34:40.204Z,29.67
2018-07-21T11:35:40.321Z,29.61
2018-07-21T11:36:40.068Z,29.61
2018-07-21T11:37:39.991Z,29.80
2018-07-21T11:38:39.931Z,29.87
2018-07-21T11:39:39.866Z,30.49
2018-07-21T11:40:39.791Z,30.46
2018-07-21T11:41:39.729Z,30.46
2018-07-21T11:42:39.655Z,31.36
2018-07-21T11:43:39.592Z,31.80
2018-07-21T11:44:39.577Z,32.45
2018-07-21T11:45:39.465Z,33.03
2018-07-21T11:46:39.391Z,32.84
2018-07-21T11:47:39.327Z,33.15
2018-07-21T11:48:39.267Z,33.61
2018-07-21T11:49:39.194Z,33.65
2018-07-21T11:50:39.130Z,33.19
2018-07-21T11:51:39.069Z,33.03
2018-07-21T11:52:39.019Z,33.42
2018-07-21T11:53:38.940Z,32.75
2018-07-21T11:54:38.867Z,32.60
2018-07-21T11:55:38.803Z,32.11
2018-07-21T11:56:38.742Z,31.72
2018-07-21T11:57:38.677Z,32.15
2018-07-21T11:58:38.616Z,32.43
2018-07-21T11:59:38.554Z,32.38
2018-07-21T12:00:38.481Z,32.69
2018-07-21T12:01:38.419Z,32.13
2018-07-21T12:02:38.358Z,32.30
2018-07-21T12:03:38.294Z,32.14
2018-07-21T12:04:38.233Z,32.19
2018-07-21T12:05:38.219Z,32.21
2018-07-21T12:06:38.111Z,31.20
2018-07-21T12:07:38.030Z,31.66
2018-07-21T12:08:37.969Z,31.68
2018-07-21T12:09:37.906Z,31.78
2018-07-21T12:10:37.845Z,31.84
2018-07-21T12:11:37.781Z,31.56
2018-07-21T12:12:37.720Z,31.63
2018-07-21T12:13:37.715Z,31.41
2018-07-21T12:14:37.583Z,31.78
2018-07-21T12:15:37.523Z,32.08
2018-07-21T12:16:37.457Z,31.69
2018-07-21T12:17:37.395Z,31.73
2018-07-21T12:18:37.330Z,31.70
2018-07-21T12:19:37.269Z,31.39
2018-07-21T12:20:37.196Z,31.34
2018-07-21T12:21:37.132Z,30.99
2018-07-21T12:22:37.070Z,30.61
2018-07-21T12:23:37.007Z,30.43
2018-07-21T12:24:36.943Z,30.51
2018-07-21T12:25:36.883Z,30.49
2018-07-21T12:26:36.857Z,30.23
2018-07-21T12:27:36.752Z,30.42
2018-07-21T12:28:36.681Z,30.84
2018-07-21T12:29:36.619Z,31.19
2018-07-21T12:30:36.548Z,31.65
2018-07-21T12:31:36.481Z,32.29
2018-07-21T12:32:36.424Z,32.65
2018-07-21T12:33:36.411Z,33.03
2018-07-21T12:34:36.297Z,32.66
2018-07-21T12:35:36.222Z,32.92
2018-07-21T12:36:36.158Z,33.26
2018-07-21T12:37:36.097Z,33.91
2018-07-21T12:38:36.032Z,33.84
2018-07-21T12:39:35.970Z,34.31
2018-07-21T12:40:35.910Z,34.21
2018-07-21T12:41:35.850Z,34.22
2018-07-21T12:42:35.773Z,34.00
2018-07-21T12:43:35.710Z,34.43
2018-07-21T12:44:35.648Z,34.54
2018-07-21T12:45:35.586Z,34.30
2018-07-21T12:46:35.525Z,34.28
2018-07-21T12:47:35.463Z,33.65
2018-07-21T12:48:35.402Z,33.69
2018-07-21T12:49:35.347Z,34.19
2018-07-21T12:50:35.259Z,33.69
2018-07-21T12:51:35.197Z,33.65